createdAt,value
2023-05-03T00:01:26.153Z,8.08
2023-05-03T00:06:27.918Z,8.07
2023-05-03T00:11:29.893Z,7.78
2023-05-03T00:16:33.486Z,7.65
2023-05-03T00:21:35.351Z,7.57
2023-05-03T00:26:37.905Z,7.32
2023-05-03T00:31:43.086Z,7.15
2023-05-03T00:36:45.567Z,7.13
2023-05-03T00:41:47.599Z,7.06
2023-05-03T00:46:51.113Z,6.90
2023-05-03T00:51:53.912Z,6.93
2023-05-03T00:56:57.108Z,6.79
2023-05-03T01:02:00.916Z,6.61
2023-05-03T01:07:09.059Z,6.52
2023-05-03T01:12:21.270Z,6.49
2023-05-03T01:17:29.560Z,6.26
2023-05-03T01:22:37.800Z,6.20
2023-05-03T01:27:42.077Z,6.09
2023-05-03T01:32:52.838Z,5.98
2023-05-03T01:37:57.085Z,5.92
2023-05-03T01:43:01.470Z,5.87
2023-05-03T01:48:09.953Z,5.93
2023-05-03T01:53:12.335Z,5.84
2023-05-03T01:58:15.853Z,5.61
2023-05-03T02:03:17.825Z,5.40
2023-05-03T02:08:19.882Z,5.32
2023-05-03T02:13:23.732Z,5.17
2023-05-03T02:18:25.443Z,5.00
2023-05-03T02:23:27.628Z,4.95
2023-05-03T02:28:31.594Z,4.89
2023-05-03T02:33:33.584Z,4.87
2023-05-03T02:38:35.707Z,4.75
2023-05-03T02:43:39.307Z,4.59
2023-05-03T02:48:41.780Z,4.43
2023-05-03T02:53:43.837Z,4.37
2023-05-03T02:58:47.228Z,4.26
2023-05-03T03:03:49.373Z,4.14
2023-05-03T03:08:51.472Z,4.01
2023-05-03T03:13:54.562Z,3.92
2023-05-03T03:18:56.570Z,3.88
2023-05-03T03:23:58.644Z,3.81
2023-05-03T03:29:02.409Z,3.75
2023-05-03T03:34:04.579Z,3.88
2023-05-03T03:39:06.674Z,3.76
2023-05-03T03:44:09.863Z,3.70
2023-05-03T03:49:11.961Z,3.74
2023-05-03T03:54:14.177Z,3.92
2023-05-03T03:59:17.428Z,3.89
2023-05-03T04:04:19.613Z,4.02
2023-05-03T04:09:21.330Z,4.20
2023-05-03T04:14:24.683Z,4.31
2023-05-03T04:19:26.778Z,4.35
2023-05-03T04:24:28.953Z,4.50
2023-05-03T04:29:32.588Z,4.64
2023-05-03T04:34:34.550Z,4.84
2023-05-03T04:39:36.225Z,5.59
2023-05-03T04:44:39.558Z,7.78
2023-05-03T04:49:41.662Z,10.14
2023-05-03T04:54:43.693Z,10.82
2023-05-03T04:59:47.342Z,12.58
2023-05-03T05:04:49.534Z,11.73
2023-05-03T05:09:52.125Z,13.63
2023-05-03T05:14:55.581Z,11.94
2023-05-03T05:19:57.651Z,14.19
2023-05-03T05:24:59.419Z,12.55
2023-05-03T05:30:03.625Z,11.85
2023-05-03T05:35:06.188Z,12.70
2023-05-03T05:40:09.255Z,13.93
2023-05-03T05:45:12.936Z,14.85
2023-05-03T05:50:18.293Z,15.68
2023-05-03T05:55:21.051Z,16.45
2023-05-03T06:00:24.847Z,15.54
2023-05-03T06:05:27.234Z,15.79
2023-05-03T06:10:29.352Z,16.02
2023-05-03T06:15:32.785Z,14.80
2023-05-03T06:20:34.949Z,14.30
2023-05-03T06:25:36.920Z,12.42
2023-05-03T06:30:41.312Z,12.87
2023-05-03T06:35:43.661Z,13.05
2023-05-03T06:40:45.863Z,12.97
2023-05-03T06:45:51.749Z,10.66
2023-05-03T06:50:54.536Z,11.75
2023-05-03T06:55:56.679Z,10.27
2023-05-03T07:01:00.231Z,10.80
2023-05-03T07:06:02.782Z,10.62
2023-05-03T07:11:05.014Z,10.58
2023-05-03T07:16:08.682Z,10.41
2023-05-03T07:21:10.833Z,10.35
2023-05-03T07:26:13.183Z,10.35
2023-05-03T07:31:16.670Z,10.07
2023-05-03T07:36:18.682Z,10.39
2023-05-03T07:41:20.844Z,10.27
2023-05-03T07:46:24.283Z,10.43
2023-05-03T07:51:26.547Z,10.37
2023-05-03T07:56:28.404Z,10.58
2023-05-03T08:01:31.868Z,10.76
2023-05-03T08:06:34.363Z,11.14
2023-05-03T08:11:36.449Z,11.19
2023-05-03T08:16:40.202Z,10.99
2023-05-03T08:21:42.572Z,11.04
2023-05-03T08:26:45.357Z,11.14
2023-05-03T08:31:49.213Z,11.82
2023-05-03T08:36:52.115Z,12.19
2023-05-03T08:41:54.559Z,12.68
2023-05-03T08:46:59.837Z,12.70
2023-05-03T08:52:02.934Z,13.89
2023-05-03T08:57:10.658Z,17.56
2023-05-03T09:02:15.378Z,17.28
2023-05-03T09:07:17.560Z,13.21
2023-05-03T09:12:35.437Z,15.26
2023-05-03T09:17:39.452Z,19.23
2023-05-03T09:22:51.296Z,18.62
2023-05-03T09:28:01.658Z,20.03
2023-05-03T09:33:05.648Z,19.66
2023-05-03T09:38:07.827Z,18.94
2023-05-03T09:43:11.273Z,16.75
2023-05-03T09:48:16.536Z,19.80
2023-05-03T09:53:21.764Z,20.71
2023-05-03T09:58:25.409Z,16.64
2023-05-03T10:03:35.039Z,19.47
2023-05-03T10:08:41.196Z,22.76
2023-05-03T10:13:43.355Z,21.62
2023-05-03T10:18:54.650Z,25.30
2023-05-03T10:24:13.179Z,26.14
2023-05-03T10:29:51.102Z,23.22
2023-05-03T10:35:00.004Z,20.03
2023-05-03T10:40:11.188Z,22.16
2023-05-03T10:45:25.827Z,18.09
2023-05-03T10:50:30.059Z,19.04
2023-05-03T10:55:32.658Z,17.58
2023-05-03T11:00:38.554Z,15.96
2023-05-03T11:05:42.546Z,17.22
2023-05-03T11:10:45.689Z,16.02
2023-05-03T11:15:48.408Z,16.64
2023-05-03T11:20:52.551Z,16.42
2023-05-03T11:25:55.321Z,15.94
2023-05-03T11:30:57.437Z,16.26
2023-05-03T11:36:01.362Z,16.54
2023-05-03T11:41:12.739Z,15.99
2023-05-03T11:46:18.774Z,15.61
2023-05-03T11:51:24.328Z,15.86
2023-05-03T11:56:26.152Z,15.45
2023-05-03T12:01:29.770Z,15.80
2023-05-03T12:06:35.781Z,17.45
2023-05-03T12:11:44.137Z,16.64
2023-05-03T12:16:50.293Z,15.46
2023-05-03T12:22:13.309Z,15.69
2023-05-03T12:27:19.370Z,15.68
2023-05-03T12:32:23.173Z,16.57
2023-05-03T12:37:28.738Z,16.78
2023-05-03T12:42:33.832Z,17.08
2023-05-03T12:47:43.856Z,16.60
2023-05-03T12:52:52.402Z,16.21
2023-05-03T12:58:10.261Z,16.44
2023-05-03T13:03:20.578Z,16.56
2023-05-03T13:08:33.385Z,16.66
2023-05-03T13:13:37.735Z,17.11
2023-05-03T13:18:39.787Z,16.75
2023-05-03T13:23:43.342Z,16.48
2023-05-03T13:28:45.525Z,17.01
2023-05-03T13:33:48.006Z,16.27
2023-05-03T13:38:51.918Z,16.38
2023-05-03T13:43:54.036Z,16.39
2023-05-03T13:48:56.891Z,17.10
2023-05-03T13:54:02.128Z,17.64
2023-05-03T13:59:07.435Z,17.24
2023-05-03T14:04:09.797Z,17.67
2023-05-03T14:09:13.996Z,16.97
2023-05-03T14:14:16.233Z,17.48
2023-05-03T14:19:18.395Z,17.13
2023-05-03T14:24:21.891Z,17.25
2023-05-03T14:29:24.113Z,17.06
2023-05-03T14:34:26.200Z,17.46
2023-05-03T14:39:29.889Z,16.71
2023-05-03T14:44:32.462Z,17.54
2023-05-03T14:49:34.944Z,17.14
2023-05-03T14:54:38.649Z,17.03
2023-05-03T14:59:40.937Z,17.44
2023-05-03T15:04:42.719Z,17.26
2023-05-03T15:09:46.374Z,17.40
2023-05-03T15:14:48.586Z,17.16
2023-05-03T15:19:50.913Z,17.43
2023-05-03T15:24:54.724Z,17.56
2023-05-03T15:29:56.857Z,17.26
2023-05-03T15:34:59.788Z,17.37
2023-05-03T15:40:04.336Z,17.67
2023-05-03T15:45:08.261Z,17.83
2023-05-03T15:50:11.277Z,18.09
2023-05-03T15:55:15.072Z,17.80
2023-05-03T16:00:17.473Z,18.12
2023-05-03T16:05:19.917Z,17.75
2023-05-03T16:10:25.044Z,16.95
2023-05-03T16:15:27.263Z,16.94
2023-05-03T16:20:29.280Z,17.00
2023-05-03T16:25:32.840Z,17.02
2023-05-03T16:30:35.459Z,17.18
2023-05-03T16:35:37.772Z,17.17
2023-05-03T16:40:41.131Z,17.11
2023-05-03T16:45:43.112Z,17.31
2023-05-03T16:50:45.086Z,16.95
2023-05-03T16:55:48.719Z,16.52
2023-05-03T17:00:51.276Z,16.33
2023-05-03T17:05:53.066Z,16.23
2023-05-03T17:10:56.643Z,15.96
2023-05-03T17:15:58.678Z,16.09
2023-05-03T17:21:01.133Z,15.71
2023-05-03T17:26:05.881Z,15.52
2023-05-03T17:31:07.688Z,15.31
2023-05-03T17:36:09.949Z,14.90
2023-05-03T17:41:13.673Z,14.82
2023-05-03T17:46:15.419Z,14.56
2023-05-03T17:51:17.287Z,14.45
2023-05-03T17:56:20.332Z,14.10
2023-05-03T18:01:22.807Z,13.90
2023-05-03T18:06:24.498Z,13.64
2023-05-03T18:11:27.543Z,13.41
2023-05-03T18:16:29.400Z,13.34
2023-05-03T18:21:31.185Z,13.03
2023-05-03T18:26:34.328Z,12.88
2023-05-03T18:31:36.094Z,12.68
2023-05-03T18:36:38.355Z,12.42
2023-05-03T18:41:41.672Z,12.32
2023-05-03T18:46:43.708Z,12.23
2023-05-03T18:51:45.640Z,12.11
2023-05-03T18:56:48.777Z,11.76
2023-05-03T19:01:50.478Z,11.51
2023-05-03T19:06:52.582Z,11.28
2023-05-03T19:11:55.682Z,11.05
2023-05-03T19:16:58.022Z,10.84
2023-05-03T19:22:00.330Z,10.41
2023-05-03T19:27:05.700Z,10.05
2023-05-03T19:32:08.633Z,9.83
2023-05-03T19:37:10.765Z,9.57
2023-05-03T19:42:14.632Z,9.31
2023-05-03T19:47:16.343Z,9.04
2023-05-03T19:52:18.512Z,8.94
2023-05-03T19:57:21.701Z,8.83
2023-05-03T20:02:25.141Z,8.72
2023-05-03T20:07:27.455Z,8.54
2023-05-03T20:12:30.856Z,8.38
2023-05-03T20:17:33.266Z,8.31
2023-05-03T20:22:35.125Z,8.13
2023-05-03T20:27:38.537Z,7.81
2023-05-03T20:32:41.372Z,7.74
2023-05-03T20:37:43.296Z,7.53
2023-05-03T20:42:46.766Z,7.44
2023-05-03T20:47:48.745Z,7.25
2023-05-03T20:52:50.900Z,7.06
2023-05-03T20:57:54.308Z,7.07
2023-05-03T21:02:56.107Z,6.86
2023-05-03T21:07:58.498Z,6.79
2023-05-03T21:13:02.406Z,6.77
2023-05-03T21:18:04.846Z,6.59
2023-05-03T21:23:07.308Z,6.51
2023-05-03T21:28:10.926Z,6.41
2023-05-03T21:33:12.917Z,6.33
2023-05-03T21:38:15.599Z,6.29
2023-05-03T21:43:19.096Z,6.10
2023-05-03T21:48:21.116Z,6.05
2023-05-03T21:53:23.176Z,6.04
2023-05-03T21:58:26.824Z,5.87
2023-05-03T22:03:28.728Z,5.77
2023-05-03T22:08:30.880Z,5.66
2023-05-03T22:13:34.999Z,5.58
2023-05-03T22:18:37.460Z,5.69
2023-05-03T22:23:39.609Z,5.57
2023-05-03T22:28:43.073Z,5.45
2023-05-03T22:33:45.398Z,5.40
2023-05-03T22:38:47.780Z,5.28
2023-05-03T22:43:51.548Z,5.06
2023-05-03T22:48:53.714Z,5.02
2023-05-03T22:53:55.644Z,4.92
2023-05-03T22:58:59.155Z,4.86
2023-05-03T23:04:01.318Z,4.85
2023-05-03T23:09:03.512Z,4.71
2023-05-03T23:14:06.967Z,4.55
2023-05-03T23:19:08.971Z,4.43
2023-05-03T23:24:11.007Z,4.35
2023-05-03T23:29:14.395Z,4.35
2023-05-03T23:34:16.893Z,4.16
2023-05-03T23:39:18.939Z,4.10
2023-05-03T23:44:22.443Z,4.10
2023-05-03T23:49:24.474Z,4.03
2023-05-03T23:54:26.373Z,4.05
2023-05-03T23:59:29.763Z,3.94
